Bookmark and Share
Track history (hours):
 

Djeneba

More information available from US FCC via Universal Licensing System and Coast Guard Vessel Documentation Center.

Last reported at 2013-Sep-01 20:11 UTC. Time now 2014-Apr-24 04:15 UTC.
Position N 47°17' W 122°26'.
Warning: this ship's position is months out of date.

Length 19 m.

Type: Pleasure craft. MMSI: 367191910.

NotesDate/timePositionNaut miles runAvg speedWind from/ knotsBaromVisibWave heightAir tempDewpointWater temp
2013-Sep-01 20:11N 47°17' W 122°26'5 7.8
2013-Sep-01 19:33N 47°22' W 122°23'3 2.9
2013-Sep-01 18:31N 47°24' W 122°20'16 1.0
2013-Sep-01 01:59N 47°39' W 122°26'4 9.1
2013-Sep-01 01:32N 47°43' W 122°27'0 8.8
2013-Sep-01 01:29N 47°44' W 122°27'9 9.5
2013-Sep-01 00:33N 47°52' W 122°30'14 5.8
2013-Aug-31 22:09N 47°43' W 122°46'3 0.2
2013-Aug-31 04:12N 47°41' W 122°49'0 0.0
2013-Aug-31 03:33N 47°41' W 122°49'0 0.0
2013-Aug-31 02:33N 47°41' W 122°49'0 0.0
2013-Aug-31 01:27N 47°41' W 122°49'0 0.0
2013-Aug-31 00:33N 47°41' W 122°49'0 0.0
2013-Aug-30 23:33N 47°41' W 122°49'0 0.0
2013-Aug-30 22:33N 47°41' W 122°49'0 0.0
2013-Aug-30 21:18N 47°41' W 122°49'0 0.0
2013-Aug-30 20:30N 47°41' W 122°49'0 0.0
2013-Aug-30 19:06N 47°41' W 122°49'0 0.0
2013-Aug-30 18:33N 47°41' W 122°49'2 1.7
2013-Aug-30 17:33N 47°41' W 122°52'0 0.0
2013-Aug-29 20:33N 47°41' W 122°51'47 1.7
2013-Aug-28 16:30N 48°28' W 122°57'  
2013-Aug-24 18:31N 48°35' W 123°02'3 2.4
2013-Aug-24 17:27N 48°32' W 123°01'0 0.0
2013-Aug-23 19:33N 48°32' W 123°01'0 0.0
2013-Aug-23 18:33N 48°32' W 123°01'0 0.0
2013-Aug-23 17:33N 48°32' W 123°01'0 0.1
2013-Aug-23 16:33N 48°32' W 123°01'  

Dump ship's entire track history

sailing weather and tide predictions

Djeneba — WDD7832 — position and weather